Aviation Digital Data Service (ADDS)

Output produced by METARs form (1607 UTC 17 October 2021)
found at http://aviationweather.gov/metar/data/
 
KFME 171555Z AUTO 30007G14KT 10SM BKN048 15/07 A2997 RMK AO1
KBWI 171554Z 30013G25KT 10SM BKN048 17/06 A2993 RMK AO2 PK WND 26027/1528 SLP135 T01720056
KBWI 171458Z 1715/1818 30017G25KT P6SM FEW080 
     FM171600 30020G30KT P6SM SCT060 BKN090 
     FM172200 29011G22KT P6SM BKN060 
     FM180000 28006KT P6SM FEW060 
     FM181400 29011G22KT P6SM SCT050
       
KESN 171550Z 30015G17KT 10SM SCT044 19/06 A2997
KCGE 171555Z AUTO 31011KT 10SM CLR 17/07 A2994 RMK A01
KSBY 171554Z 31014G20KT 10SM CLR 17/07 A2993 RMK AO2 SLP136 T01720067
KSBY 171120Z 1712/1812 29009KT P6SM SKC 
     FM171500 30014G23KT P6SM SCT060 
     FM172200 30012G19KT P6SM SCT060 
     FM180100 29006KT P6SM SKC
       
KOXB 171553Z AUTO 32008G15KT 280V350 10SM CLR 18/08 A2992 RMK AO2 SLP131 T01780083
KFDK 171547Z 30019G24KT 10SM CLR 16/06 A2996
KHGR 171553Z 29015G19KT 10SM FEW049 BKN060 15/04 A2996 RMK AO2 SLP153 T01500044 $